Columbus Municipal Airport Columbus US
ICAO: KOLU
IATA: OLU
Category: Medium
Scheduled Services: No

Elevation: 1447 ft
TransAlt. 18000 ft.

Airport Communications:
AWOS 3:125.525
MINNEAPOLIS CNTR:128.75
CTAF/UNICOM:123.05
RDO:122.2

KOLU Zoom In..

Runways:

(A) RW 02 length 4135 ft width 150 ft
LOC 109.10 / hdg 22

(B) RW 14 length 6801 ft width 100 ft
LOC 109.10 / hdg 142

(C) RW 20 length 4135 ft width 150 ft
LOC 109.10 / hdg 202

(D) RW 32 length 6801 ft width 100 ft
LOC 109.10 / hdg 322

Location; KOLU
Day. 20 / Time. 02.56 Zulu
* Altimeter: 29.87
* Temperature: 23° c. 73.4°f.
* Wind from: 000° Speed 00 kn.
Dewpoint: 21° c.
Visibility: 10 Statute Miles.
Clouds: Clear (automated report).

KOLU 200256Z AUTO 00000KT 10SM CLR 23/21 A2987 RMK AO2 SLP104 T02280206 53007


Wind - Calm.

 
 
jpsmedia.com for Web Design worldairports.se 2018   terms of use